Terminal Aerodrome Forecast
Issued by NWS Brownsville, TX

Home | Current Version | Previous Version | Text Only | Print | Product List | Glossary On
Versions: 1 2 3 4 5 6 7 8 9 10 11 12
562
FTUS44 KBRO 120520
TAFHRL
TAF
KHRL 120520Z 1206/1306 16009KT P6SM SKC
     FM121500 16015G20KT P6SM SCT050
     FM130200 15007KT P6SM FEW250=

USA.gov is the U.S. government's official web portal to all federal, state and local government web resources and services.